createdAt,value
2023-01-29T00:02:15.461Z,22.63
2023-01-29T00:04:42.567Z,25.20
2023-01-29T00:07:09.727Z,23.65
2023-01-29T00:09:36.868Z,26.25
2023-01-29T00:12:04.200Z,27.63
2023-01-29T00:14:31.293Z,23.88
2023-01-29T00:16:58.419Z,23.60
2023-01-29T00:19:25.553Z,22.02
2023-01-29T00:21:52.672Z,29.00
2023-01-29T00:24:19.897Z,27.02
2023-01-29T00:26:47.055Z,26.73
2023-01-29T00:29:14.154Z,25.52
2023-01-29T00:31:44.363Z,24.65
2023-01-29T00:34:11.527Z,25.63
2023-01-29T00:36:38.726Z,27.77
2023-01-29T00:39:11.191Z,25.70
2023-01-29T00:41:57.550Z,23.33
2023-01-29T00:44:43.046Z,23.27
2023-01-29T00:47:28.882Z,26.95
2023-01-29T00:49:56.442Z,28.83
2023-01-29T00:52:24.410Z,26.23
2023-01-29T00:54:52.875Z,25.60
2023-01-29T00:57:20.125Z,27.10
2023-01-29T00:59:47.156Z,25.67
2023-01-29T01:02:33.011Z,30.80
2023-01-29T01:05:02.654Z,27.17
2023-01-29T01:07:30.659Z,24.98
2023-01-29T01:10:17.089Z,25.77
2023-01-29T01:12:44.577Z,27.88
2023-01-29T01:15:11.928Z,26.15
2023-01-29T01:17:39.037Z,25.30
2023-01-29T01:20:06.514Z,29.92
2023-01-29T01:22:33.620Z,23.40
2023-01-29T01:25:00.753Z,26.48
2023-01-29T01:27:27.789Z,25.17
2023-01-29T01:29:54.885Z,24.20
2023-01-29T01:32:22.039Z,24.92
2023-01-29T01:34:49.199Z,30.60
2023-01-29T01:37:16.315Z,28.20
2023-01-29T01:39:43.388Z,28.80
2023-01-29T01:42:13.828Z,31.48
2023-01-29T01:45:04.448Z,30.08
2023-01-29T01:47:43.357Z,26.73
2023-01-29T01:50:22.783Z,27.52
2023-01-29T01:52:53.443Z,27.88
2023-01-29T01:55:25.540Z,30.65
2023-01-29T01:58:00.256Z,27.20
2023-01-29T02:00:27.606Z,28.23
2023-01-29T02:03:14.553Z,28.75
2023-01-29T02:06:00.608Z,28.23
2023-01-29T02:09:11.385Z,29.73
2023-01-29T02:11:39.014Z,26.88
2023-01-29T02:14:06.689Z,28.83
2023-01-29T02:16:36.312Z,30.67
2023-01-29T02:19:14.687Z,33.63
2023-01-29T02:21:44.874Z,30.73
2023-01-29T02:24:49.388Z,30.83
2023-01-29T02:27:50.095Z,27.52
2023-01-29T02:30:28.882Z,29.60
2023-01-29T02:33:30.430Z,32.53
2023-01-29T02:36:13.377Z,35.88
2023-01-29T02:39:10.076Z,32.13
2023-01-29T02:42:02.951Z,34.28
2023-01-29T02:44:33.155Z,31.27
2023-01-29T02:47:12.403Z,27.23
2023-01-29T02:50:02.716Z,31.58
2023-01-29T02:52:54.606Z,32.63
2023-01-29T02:55:30.513Z,31.35
2023-01-29T02:58:05.514Z,33.35
2023-01-29T03:00:40.422Z,34.70
2023-01-29T03:03:31.594Z,31.80
2023-01-29T03:06:12.323Z,32.95
2023-01-29T03:08:46.125Z,28.27
2023-01-29T03:11:16.098Z,33.22
2023-01-29T03:14:06.099Z,30.55
2023-01-29T03:16:51.904Z,31.85
2023-01-29T03:19:36.513Z,36.05
2023-01-29T03:22:08.702Z,35.58
2023-01-29T03:25:08.709Z,36.13
2023-01-29T03:28:00.596Z,35.00
2023-01-29T03:30:49.643Z,33.85
2023-01-29T03:33:19.492Z,32.45
2023-01-29T03:35:53.913Z,35.28
2023-01-29T03:38:21.275Z,32.33
2023-01-29T03:41:07.823Z,32.22
2023-01-29T03:43:39.765Z,37.70
2023-01-29T03:46:31.957Z,30.60
2023-01-29T03:49:22.030Z,26.75
2023-01-29T03:52:01.031Z,34.00
2023-01-29T03:55:11.433Z,30.35
2023-01-29T03:57:45.689Z,32.90
2023-01-29T04:00:22.871Z,35.58
2023-01-29T04:03:16.850Z,29.35
2023-01-29T04:06:11.758Z,32.28
2023-01-29T04:08:59.661Z,31.65
2023-01-29T04:11:30.633Z,32.42
2023-01-29T04:13:58.833Z,34.78
2023-01-29T04:16:48.862Z,35.03
2023-01-29T04:19:16.545Z,36.15
2023-01-29T04:21:45.504Z,33.80
2023-01-29T04:24:14.201Z,35.53
2023-01-29T04:27:04.372Z,42.30
2023-01-29T04:29:44.755Z,37.03
2023-01-29T04:32:38.981Z,38.25
2023-01-29T04:35:51.781Z,35.38
2023-01-29T04:38:42.364Z,31.33
2023-01-29T04:41:35.596Z,34.90
2023-01-29T04:44:28.706Z,37.30
2023-01-29T04:47:17.089Z,35.97
2023-01-29T04:50:13.491Z,35.78
2023-01-29T04:53:05.726Z,34.00
2023-01-29T04:55:50.621Z,36.80
2023-01-29T05:00:50.982Z,30.85
2023-01-29T05:03:18.752Z,34.53
2023-01-29T05:05:48.867Z,33.33
2023-01-29T05:08:20.049Z,32.05
2023-01-29T05:10:52.536Z,32.58
2023-01-29T05:13:22.470Z,33.38
2023-01-29T05:16:19.514Z,31.05
2023-01-29T05:18:47.256Z,32.10
2023-01-29T05:21:14.456Z,33.25
2023-01-29T05:23:53.370Z,29.50
2023-01-29T05:26:40.149Z,31.95
2023-01-29T05:29:07.384Z,32.92
2023-01-29T05:31:34.516Z,32.78
2023-01-29T05:34:01.664Z,32.75
2023-01-29T05:36:28.952Z,33.92
2023-01-29T05:38:56.029Z,35.95
2023-01-29T05:41:23.101Z,32.60
2023-01-29T05:43:50.110Z,40.65
2023-01-29T05:46:17.256Z,47.47
2023-01-29T05:48:44.329Z,42.40
2023-01-29T05:51:11.464Z,37.30
2023-01-29T05:53:38.628Z,42.15
2023-01-29T05:56:06.336Z,38.05
2023-01-29T05:58:34.275Z,37.03
2023-01-29T06:01:24.670Z,41.10
2023-01-29T06:03:52.132Z,38.55
2023-01-29T06:06:19.194Z,40.15
2023-01-29T06:08:46.321Z,41.22
2023-01-29T06:11:15.328Z,45.08
2023-01-29T06:13:42.728Z,38.50
2023-01-29T06:16:11.393Z,40.28
2023-01-29T06:18:39.512Z,40.75
2023-01-29T06:21:09.681Z,42.47
2023-01-29T06:23:36.789Z,34.35
2023-01-29T06:26:10.515Z,38.33
2023-01-29T06:28:37.753Z,41.20
2023-01-29T06:33:53.795Z,38.92
2023-01-29T06:36:20.917Z,39.95
2023-01-29T06:38:48.571Z,32.63
2023-01-29T06:41:18.569Z,35.03
2023-01-29T06:43:46.317Z,37.80
2023-01-29T06:46:13.475Z,34.20
2023-01-29T06:48:40.541Z,72.05
2023-01-29T06:51:09.203Z,35.90
2023-01-29T06:53:37.999Z,33.78
2023-01-29T06:56:06.233Z,28.27
2023-01-29T06:58:33.467Z,35.25
2023-01-29T07:01:08.445Z,34.53
2023-01-29T07:03:36.059Z,30.88
2023-01-29T07:06:03.410Z,31.95
2023-01-29T07:08:30.707Z,27.65
2023-01-29T07:11:01.702Z,31.08
2023-01-29T07:13:29.441Z,27.90
2023-01-29T07:16:04.162Z,31.52
2023-01-29T07:18:32.431Z,32.00
2023-01-29T07:20:59.704Z,32.22
2023-01-29T07:23:26.932Z,27.73
2023-01-29T07:25:54.058Z,28.63
2023-01-29T07:28:21.325Z,27.25
2023-01-29T07:30:48.697Z,29.17
2023-01-29T07:33:15.836Z,32.65
2023-01-29T07:35:43.763Z,29.50
2023-01-29T07:38:11.788Z,33.15
2023-01-29T07:40:40.102Z,37.10
2023-01-29T07:43:08.652Z,48.05
2023-01-29T07:45:37.419Z,39.22
2023-01-29T07:48:05.899Z,34.60
2023-01-29T07:50:34.883Z,32.97
2023-01-29T07:53:03.143Z,35.10
2023-01-29T07:55:30.974Z,29.08
2023-01-29T07:58:00.156Z,27.30
2023-01-29T08:00:27.977Z,26.83
2023-01-29T08:03:02.647Z,25.85
2023-01-29T08:05:29.998Z,27.02
2023-01-29T08:08:06.111Z,25.85
2023-01-29T08:10:37.680Z,27.20
2023-01-29T08:13:07.446Z,25.75
2023-01-29T08:15:37.194Z,29.02
2023-01-29T08:18:06.044Z,28.65
2023-01-29T08:20:33.200Z,23.75
2023-01-29T08:23:13.344Z,32.53
2023-01-29T08:25:40.570Z,33.30
2023-01-29T08:28:08.240Z,33.03
2023-01-29T08:30:36.178Z,30.98
2023-01-29T08:33:04.721Z,30.23
2023-01-29T08:35:31.942Z,25.50
2023-01-29T08:38:01.772Z,22.83
2023-01-29T08:40:34.145Z,22.83
2023-01-29T08:43:09.016Z,24.25
2023-01-29T08:45:40.158Z,23.95
2023-01-29T08:48:08.082Z,26.13
2023-01-29T08:50:35.711Z,25.73
2023-01-29T08:53:08.162Z,20.50
2023-01-29T08:55:39.767Z,20.75
2023-01-29T08:58:08.722Z,21.25
2023-01-29T09:00:36.058Z,20.58
2023-01-29T09:03:04.054Z,21.80
2023-01-29T09:05:31.577Z,19.10
2023-01-29T09:07:59.691Z,20.55
2023-01-29T09:10:27.262Z,23.42
2023-01-29T09:12:54.364Z,21.83
2023-01-29T09:15:21.424Z,27.08
2023-01-29T09:17:49.802Z,25.33
2023-01-29T09:20:17.876Z,18.17
2023-01-29T09:22:46.027Z,17.27
2023-01-29T09:25:13.605Z,19.33
2023-01-29T09:27:40.683Z,21.02
2023-01-29T09:30:08.386Z,19.65
2023-01-29T09:35:23.840Z,19.00
2023-01-29T09:37:52.389Z,18.25
2023-01-29T09:40:49.170Z,16.27
2023-01-29T09:43:53.233Z,15.50
2023-01-29T09:46:42.149Z,16.08
2023-01-29T09:49:31.830Z,17.10
2023-01-29T09:52:22.343Z,13.48
2023-01-29T09:55:20.743Z,15.13
2023-01-29T09:57:55.843Z,16.05
2023-01-29T10:00:47.744Z,14.05
2023-01-29T10:03:39.116Z,15.65
2023-01-29T10:06:16.178Z,13.35
2023-01-29T10:09:05.843Z,14.85
2023-01-29T10:11:50.478Z,17.08
2023-01-29T10:14:38.174Z,20.30
2023-01-29T10:17:26.156Z,17.50
2023-01-29T10:20:12.081Z,19.30
2023-01-29T10:23:13.030Z,15.88
2023-01-29T10:25:42.314Z,16.40
2023-01-29T10:28:32.006Z,17.98
2023-01-29T10:31:04.613Z,17.50
2023-01-29T10:34:03.468Z,16.95
2023-01-29T10:36:48.150Z,16.30
2023-01-29T10:39:23.762Z,19.25
2023-01-29T10:42:15.500Z,26.23
2023-01-29T10:45:03.884Z,21.52
2023-01-29T10:48:09.310Z,17.80
2023-01-29T10:51:00.258Z,15.57
2023-01-29T10:53:53.603Z,17.27
2023-01-29T10:56:38.385Z,11.68
2023-01-29T10:59:39.092Z,15.32
2023-01-29T11:02:18.861Z,19.25
2023-01-29T11:04:46.372Z,19.38
2023-01-29T11:07:16.607Z,17.73
2023-01-29T11:10:11.765Z,20.30
2023-01-29T11:12:39.894Z,13.23
2023-01-29T11:15:27.387Z,14.98
2023-01-29T11:18:18.585Z,13.10
2023-01-29T11:20:46.631Z,15.15
2023-01-29T11:23:32.343Z,23.20
2023-01-29T11:26:01.018Z,21.42
2023-01-29T11:28:43.378Z,15.30
2023-01-29T11:31:23.544Z,13.35
2023-01-29T11:33:54.190Z,13.32
2023-01-29T11:36:33.323Z,14.90
2023-01-29T11:39:22.429Z,12.07
2023-01-29T11:41:58.822Z,11.35
2023-01-29T11:44:36.729Z,10.85
2023-01-29T11:47:18.974Z,12.80
2023-01-29T11:49:57.859Z,12.50
2023-01-29T11:52:37.952Z,13.02
2023-01-29T11:55:49.489Z,11.23
2023-01-29T11:58:30.376Z,15.20
2023-01-29T12:00:59.398Z,17.55
2023-01-29T12:03:33.107Z,17.27
2023-01-29T12:06:09.475Z,15.13
2023-01-29T12:08:40.336Z,10.95
2023-01-29T12:11:29.658Z,12.38
2023-01-29T12:14:02.741Z,16.15
2023-01-29T12:16:32.809Z,17.30
2023-01-29T12:19:33.730Z,19.15
2023-01-29T12:22:07.429Z,12.15
2023-01-29T12:24:57.819Z,22.53
2023-01-29T12:27:37.015Z,22.40
2023-01-29T12:30:25.357Z,14.48
2023-01-29T12:33:25.634Z,14.13
2023-01-29T12:36:11.805Z,12.23
2023-01-29T12:38:41.196Z,15.18
2023-01-29T12:42:05.229Z,11.45
2023-01-29T12:44:42.687Z,12.43
2023-01-29T12:47:26.714Z,13.00
2023-01-29T12:49:58.323Z,14.47
2023-01-29T12:52:50.844Z,12.75
2023-01-29T12:55:33.249Z,13.50
2023-01-29T12:58:25.337Z,14.25
2023-01-29T13:00:57.127Z,13.68
2023-01-29T13:03:53.360Z,12.25
2023-01-29T13:06:50.059Z,17.88
2023-01-29T13:09:24.991Z,25.67
2023-01-29T13:12:11.723Z,11.40
2023-01-29T13:14:48.792Z,14.85
2023-01-29T13:17:26.567Z,13.93
2023-01-29T13:19:58.323Z,12.85
2023-01-29T13:22:27.390Z,13.23
2023-01-29T13:25:04.757Z,14.13
2023-01-29T13:27:37.192Z,14.50
2023-01-29T13:30:05.472Z,14.60
2023-01-29T13:32:35.384Z,14.18
2023-01-29T13:35:13.455Z,14.18
2023-01-29T13:37:51.259Z,13.98
2023-01-29T13:40:36.668Z,16.77
2023-01-29T13:43:04.121Z,12.77
2023-01-29T13:45:45.519Z,16.33
2023-01-29T13:48:37.073Z,16.67
2023-01-29T13:51:15.974Z,16.20
2023-01-29T13:53:44.410Z,21.30
2023-01-29T13:56:34.334Z,15.60
2023-01-29T13:59:05.475Z,13.57
2023-01-29T14:01:47.890Z,14.70
2023-01-29T14:04:31.451Z,17.75
2023-01-29T14:06:59.365Z,29.75
2023-01-29T14:09:39.091Z,27.30
2023-01-29T14:12:32.935Z,17.23
2023-01-29T14:15:29.303Z,16.42
2023-01-29T14:18:16.736Z,17.95
2023-01-29T14:21:00.298Z,16.33
2023-01-29T14:23:33.978Z,16.27
2023-01-29T14:26:03.322Z,17.13
2023-01-29T14:28:32.745Z,17.80
2023-01-29T14:31:00.768Z,20.15
2023-01-29T14:33:34.435Z,18.90
2023-01-29T14:36:13.700Z,17.60
2023-01-29T14:38:47.541Z,15.52
2023-01-29T14:41:27.227Z,15.80
2023-01-29T14:44:32.489Z,19.30
2023-01-29T14:46:59.694Z,18.85
2023-01-29T14:49:55.525Z,18.70
2023-01-29T14:52:47.517Z,22.05
2023-01-29T14:55:39.294Z,22.38
2023-01-29T14:58:15.587Z,25.60
2023-01-29T15:00:46.394Z,23.00
2023-01-29T15:03:43.291Z,19.10
2023-01-29T15:06:17.908Z,19.50
2023-01-29T15:09:09.696Z,18.70
2023-01-29T15:11:47.739Z,17.08
2023-01-29T15:14:24.868Z,18.85
2023-01-29T15:17:09.870Z,19.80
2023-01-29T15:19:37.549Z,20.40
2023-01-29T15:22:19.032Z,17.35
2023-01-29T15:24:48.636Z,21.50
2023-01-29T15:27:21.464Z,23.10
2023-01-29T15:29:58.340Z,23.95
2023-01-29T15:32:31.457Z,33.78
2023-01-29T15:35:00.773Z,35.63
2023-01-29T15:37:36.147Z,27.83
2023-01-29T15:40:12.216Z,21.52
2023-01-29T15:42:50.102Z,20.98
2023-01-29T15:45:32.147Z,18.67
2023-01-29T15:48:01.693Z,19.08
2023-01-29T15:50:30.806Z,18.85
2023-01-29T15:53:03.981Z,19.58
2023-01-29T15:55:32.441Z,22.08
2023-01-29T15:58:01.927Z,25.80
2023-01-29T16:00:30.898Z,27.30
2023-01-29T16:03:01.684Z,28.60
2023-01-29T16:05:31.028Z,26.70
2023-01-29T16:08:00.340Z,24.60
2023-01-29T16:10:31.863Z,23.15
2023-01-29T16:13:00.796Z,20.98
2023-01-29T16:15:37.864Z,19.98
2023-01-29T16:18:21.978Z,20.27
2023-01-29T16:20:57.547Z,39.80
2023-01-29T16:23:29.300Z,20.85
2023-01-29T16:26:04.152Z,28.15
2023-01-29T16:28:32.246Z,26.92
2023-01-29T16:31:04.273Z,25.17
2023-01-29T16:33:37.294Z,28.52
2023-01-29T16:36:16.552Z,21.88
2023-01-29T16:38:51.836Z,28.55
2023-01-29T16:41:22.649Z,22.67
2023-01-29T16:44:00.591Z,24.48
2023-01-29T16:46:46.608Z,27.38
2023-01-29T16:49:29.706Z,30.13
2023-01-29T16:52:15.050Z,27.92
2023-01-29T16:54:46.595Z,35.58
2023-01-29T16:57:28.308Z,42.10
2023-01-29T17:00:04.619Z,42.95
2023-01-29T17:02:43.360Z,42.80
2023-01-29T17:05:31.045Z,36.20
2023-01-29T17:08:00.282Z,43.45
2023-01-29T17:10:30.310Z,41.67
2023-01-29T17:13:10.436Z,28.13
2023-01-29T17:15:47.525Z,34.20
2023-01-29T17:18:25.676Z,28.15
2023-01-29T17:20:55.831Z,30.88
2023-01-29T17:23:23.838Z,35.88
2023-01-29T17:25:55.503Z,33.72
2023-01-29T17:28:23.362Z,26.30
2023-01-29T17:31:05.262Z,22.55
2023-01-29T17:33:34.386Z,26.33
2023-01-29T17:36:02.095Z,24.67
2023-01-29T17:38:30.052Z,22.40
2023-01-29T17:41:07.180Z,23.95
2023-01-29T17:43:37.210Z,27.38
2023-01-29T17:46:05.407Z,27.27
2023-01-29T17:48:33.642Z,30.30
2023-01-29T17:51:04.904Z,30.23
2023-01-29T17:53:45.211Z,33.83
2023-01-29T17:56:24.797Z,31.55
2023-01-29T17:58:54.062Z,39.03
2023-01-29T18:01:22.028Z,35.47
2023-01-29T18:03:51.273Z,30.33
2023-01-29T18:06:29.579Z,35.35
2023-01-29T18:08:57.868Z,33.08
2023-01-29T18:11:25.960Z,29.33
2023-01-29T18:13:54.134Z,28.42
2023-01-29T18:16:24.823Z,31.60
2023-01-29T18:18:53.481Z,26.48
2023-01-29T18:21:21.704Z,27.27
2023-01-29T18:23:49.416Z,28.20
2023-01-29T18:26:18.309Z,31.73
2023-01-29T18:28:46.396Z,34.38
2023-01-29T18:31:14.962Z,32.20
2023-01-29T18:33:44.569Z,28.73
2023-01-29T18:36:12.184Z,30.98
2023-01-29T18:38:40.046Z,27.80
2023-01-29T18:41:12.796Z,30.13
2023-01-29T18:43:42.574Z,30.63
2023-01-29T18:46:10.802Z,30.63
2023-01-29T18:48:39.555Z,29.13
2023-01-29T18:51:09.758Z,30.02
2023-01-29T18:53:38.058Z,29.05
2023-01-29T18:56:08.958Z,34.13
2023-01-29T18:58:40.241Z,31.85
2023-01-29T19:01:13.530Z,32.83
2023-01-29T19:03:46.109Z,37.00
2023-01-29T19:06:15.698Z,31.08
2023-01-29T19:08:44.673Z,32.53
2023-01-29T19:11:14.155Z,33.15
2023-01-29T19:13:43.519Z,33.15
2023-01-29T19:16:14.210Z,35.42
2023-01-29T19:18:41.919Z,27.38
2023-01-29T19:21:14.810Z,32.63
2023-01-29T19:23:44.366Z,33.50
2023-01-29T19:26:15.376Z,34.85
2023-01-29T19:28:43.524Z,37.80
2023-01-29T19:31:12.171Z,38.55
2023-01-29T19:33:40.871Z,38.00
2023-01-29T19:36:09.558Z,38.58
2023-01-29T19:38:39.355Z,35.90
2023-01-29T19:41:07.408Z,40.75
2023-01-29T19:43:35.710Z,35.55
2023-01-29T19:46:03.849Z,34.42
2023-01-29T19:48:31.922Z,35.30
2023-01-29T19:51:06.125Z,38.28
2023-01-29T19:53:34.385Z,36.13
2023-01-29T19:56:11.743Z,34.58
2023-01-29T19:58:39.904Z,38.50
2023-01-29T20:01:17.741Z,39.30
2023-01-29T20:03:47.482Z,36.78
2023-01-29T20:06:18.857Z,32.05
2023-01-29T20:08:48.523Z,36.05
2023-01-29T20:11:19.088Z,41.80
2023-01-29T20:13:52.337Z,36.70
2023-01-29T20:16:22.674Z,35.60
2023-01-29T20:18:50.178Z,30.73
2023-01-29T20:21:23.110Z,33.90
2023-01-29T20:23:55.302Z,33.35
2023-01-29T20:26:23.686Z,33.55
2023-01-29T20:29:09.884Z,40.67
2023-01-29T20:31:38.059Z,30.48
2023-01-29T20:34:07.044Z,29.77
2023-01-29T20:36:35.589Z,29.60
2023-01-29T20:39:05.673Z,33.20
2023-01-29T20:41:35.592Z,35.22
2023-01-29T20:44:03.564Z,30.77
2023-01-29T20:46:31.325Z,28.67
2023-01-29T20:48:59.194Z,27.63
2023-01-29T20:51:26.861Z,27.30
2023-01-29T20:53:56.350Z,29.50
2023-01-29T20:56:37.344Z,27.60
2023-01-29T20:59:11.763Z,25.73
2023-01-29T21:01:39.903Z,27.70
2023-01-29T21:04:07.997Z,28.92
2023-01-29T21:06:36.161Z,31.08
2023-01-29T21:09:04.351Z,28.95
2023-01-29T21:11:34.127Z,30.02
2023-01-29T21:14:02.683Z,33.78
2023-01-29T21:16:30.794Z,28.25
2023-01-29T21:18:59.990Z,26.02
2023-01-29T21:21:28.119Z,24.88
2023-01-29T21:23:56.597Z,26.27
2023-01-29T21:26:24.389Z,25.70
2023-01-29T21:28:51.905Z,27.58
2023-01-29T21:31:19.559Z,29.02
2023-01-29T21:33:47.070Z,26.65
2023-01-29T21:36:15.314Z,28.35
2023-01-29T21:38:43.046Z,31.63
2023-01-29T21:41:12.059Z,26.75
2023-01-29T21:43:39.930Z,25.65
2023-01-29T21:46:14.366Z,26.73
2023-01-29T21:48:42.039Z,26.73
2023-01-29T21:51:09.695Z,26.60
2023-01-29T21:53:37.492Z,26.77
2023-01-29T21:56:06.156Z,27.42
2023-01-29T21:58:33.518Z,27.08
2023-01-29T22:01:35.548Z,24.67
2023-01-29T22:03:47.899Z,26.10
2023-01-29T22:06:15.959Z,24.70
2023-01-29T22:08:43.233Z,27.88
2023-01-29T22:11:11.009Z,28.17
2023-01-29T22:13:38.207Z,28.58
2023-01-29T22:16:06.165Z,27.88
2023-01-29T22:18:38.590Z,24.52
2023-01-29T22:21:06.417Z,27.40
2023-01-29T22:23:33.526Z,32.22
2023-01-29T22:26:07.699Z,30.40
2023-01-29T22:28:35.289Z,27.58
2023-01-29T22:31:03.539Z,26.98
2023-01-29T22:33:30.883Z,27.42
2023-01-29T22:35:58.279Z,28.95
2023-01-29T22:38:25.480Z,29.73
2023-01-29T22:40:57.372Z,30.27
2023-01-29T22:43:26.157Z,31.45
2023-01-29T22:45:53.226Z,29.48
2023-01-29T22:48:20.316Z,28.85
2023-01-29T22:50:53.977Z,33.97
2023-01-29T22:53:21.159Z,30.50
2023-01-29T22:55:55.908Z,30.63
2023-01-29T22:58:22.993Z,30.42
2023-01-29T23:00:51.533Z,32.25
2023-01-29T23:03:18.644Z,29.23
2023-01-29T23:05:45.756Z,29.98
2023-01-29T23:08:12.805Z,29.98
2023-01-29T23:10:39.923Z,33.20
2023-01-29T23:13:07.001Z,33.22
2023-01-29T23:15:34.111Z,35.05
2023-01-29T23:18:01.375Z,33.60
2023-01-29T23:20:28.579Z,34.72
2023-01-29T23:22:55.843Z,32.85
2023-01-29T23:25:23.033Z,33.00
2023-01-29T23:27:50.088Z,35.53
2023-01-29T23:30:17.647Z,34.90
2023-01-29T23:32:45.203Z,35.15
2023-01-29T23:35:12.299Z,34.40
2023-01-29T23:37:39.372Z,34.38
2023-01-29T23:40:07.062Z,31.77
2023-01-29T23:42:34.107Z,32.35
2023-01-29T23:45:01.201Z,35.40
2023-01-29T23:47:28.247Z,31.40
2023-01-29T23:49:55.319Z,33.20
2023-01-29T23:52:22.403Z,30.10
2023-01-29T23:54:49.518Z,34.03
2023-01-29T23:57:16.551Z,34.22
2023-01-29T23:59:43.672Z,31.80
